sensor_id;sensor_type;location;lat;lon;timestamp;P1;durP1;ratioP1;P2;durP2;ratioP2
44536;SDS011;30245;51.966;6.292;2024-01-25T00:01:06;21.10;;;3.33;;
44536;SDS011;30245;51.966;6.292;2024-01-25T00:03:32;31.23;;;4.67;;
44536;SDS011;30245;51.966;6.292;2024-01-25T00:05:57;23.17;;;3.77;;
44536;SDS011;30245;51.966;6.292;2024-01-25T00:08:23;22.70;;;3.63;;
44536;SDS011;30245;51.966;6.292;2024-01-25T00:10:48;15.30;;;1.70;;
44536;SDS011;30245;51.966;6.292;2024-01-25T00:13:14;21.23;;;3.37;;
44536;SDS011;30245;51.966;6.292;2024-01-25T00:15:40;15.63;;;2.47;;
44536;SDS011;30245;51.966;6.292;2024-01-25T00:18:05;24.73;;;3.90;;
44536;SDS011;30245;51.966;6.292;2024-01-25T00:20:31;13.93;;;3.77;;
44536;SDS011;30245;51.966;6.292;2024-01-25T00:22:56;17.47;;;3.50;;
44536;SDS011;30245;51.966;6.292;2024-01-25T00:25:22;12.17;;;1.93;;
44536;SDS011;30245;51.966;6.292;2024-01-25T00:27:48;19.63;;;2.80;;
44536;SDS011;30245;51.966;6.292;2024-01-25T00:30:13;19.03;;;3.13;;
44536;SDS011;30245;51.966;6.292;2024-01-25T00:32:39;19.63;;;4.10;;
44536;SDS011;30245;51.966;6.292;2024-01-25T00:35:05;20.93;;;3.37;;
44536;SDS011;30245;51.966;6.292;2024-01-25T00:37:31;18.03;;;4.00;;
44536;SDS011;30245;51.966;6.292;2024-01-25T00:39:56;17.97;;;2.70;;
44536;SDS011;30245;51.966;6.292;2024-01-25T00:42:22;22.77;;;5.20;;
44536;SDS011;30245;51.966;6.292;2024-01-25T00:44:49;11.50;;;2.43;;
44536;SDS011;30245;51.966;6.292;2024-01-25T00:47:15;11.63;;;2.20;;
44536;SDS011;30245;51.966;6.292;2024-01-25T00:49:41;13.63;;;3.00;;
44536;SDS011;30245;51.966;6.292;2024-01-25T00:52:07;21.90;;;4.07;;
44536;SDS011;30245;51.966;6.292;2024-01-25T00:54:33;20.07;;;2.03;;
44536;SDS011;30245;51.966;6.292;2024-01-25T00:56:59;16.53;;;2.60;;
44536;SDS011;30245;51.966;6.292;2024-01-25T00:59:24;15.90;;;2.90;;
44536;SDS011;30245;51.966;6.292;2024-01-25T01:01:51;20.43;;;3.97;;
44536;SDS011;30245;51.966;6.292;2024-01-25T01:04:18;18.97;;;4.60;;
44536;SDS011;30245;51.966;6.292;2024-01-25T01:06:44;13.50;;;1.63;;
44536;SDS011;30245;51.966;6.292;2024-01-25T01:09:10;17.30;;;1.90;;
44536;SDS011;30245;51.966;6.292;2024-01-25T01:11:36;15.47;;;2.10;;
44536;SDS011;30245;51.966;6.292;2024-01-25T01:14:01;17.47;;;3.13;;
44536;SDS011;30245;51.966;6.292;2024-01-25T01:16:27;12.83;;;3.00;;
44536;SDS011;30245;51.966;6.292;2024-01-25T01:18:55;18.17;;;4.28;;
44536;SDS011;30245;51.966;6.292;2024-01-25T01:21:21;20.07;;;3.27;;
44536;SDS011;30245;51.966;6.292;2024-01-25T01:23:46;10.63;;;2.13;;
44536;SDS011;30245;51.966;6.292;2024-01-25T01:26:12;22.13;;;3.00;;
44536;SDS011;30245;51.966;6.292;2024-01-25T01:28:37;15.67;;;1.70;;
44536;SDS011;30245;51.966;6.292;2024-01-25T01:31:03;17.80;;;3.00;;
44536;SDS011;30245;51.966;6.292;2024-01-25T01:33:29;16.53;;;3.00;;
44536;SDS011;30245;51.966;6.292;2024-01-25T01:35:55;11.83;;;1.63;;
44536;SDS011;30245;51.966;6.292;2024-01-25T01:38:20;23.00;;;3.17;;
44536;SDS011;30245;51.966;6.292;2024-01-25T01:40:46;16.87;;;4.60;;
44536;SDS011;30245;51.966;6.292;2024-01-25T01:43:20;14.90;;;2.37;;
44536;SDS011;30245;51.966;6.292;2024-01-25T01:45:48;16.23;;;2.40;;
44536;SDS011;30245;51.966;6.292;2024-01-25T01:48:14;16.87;;;3.23;;
44536;SDS011;30245;51.966;6.292;2024-01-25T01:50:41;17.17;;;2.13;;
44536;SDS011;30245;51.966;6.292;2024-01-25T01:53:07;20.87;;;4.20;;
44536;SDS011;30245;51.966;6.292;2024-01-25T01:55:33;14.23;;;3.20;;
44536;SDS011;30245;51.966;6.292;2024-01-25T01:57:59;16.13;;;2.87;;
44536;SDS011;30245;51.966;6.292;2024-01-25T02:00:25;18.90;;;2.93;;
44536;SDS011;30245;51.966;6.292;2024-01-25T02:05:19;11.97;;;1.77;;
44536;SDS011;30245;51.966;6.292;2024-01-25T02:07:45;14.63;;;2.60;;
44536;SDS011;30245;51.966;6.292;2024-01-25T02:10:10;13.87;;;2.90;;
44536;SDS011;30245;51.966;6.292;2024-01-25T02:12:36;22.00;;;2.27;;
44536;SDS011;30245;51.966;6.292;2024-01-25T02:15:03;12.50;;;2.80;;
44536;SDS011;30245;51.966;6.292;2024-01-25T02:17:29;16.77;;;2.40;;
44536;SDS011;30245;51.966;6.292;2024-01-25T02:19:55;20.17;;;2.07;;
44536;SDS011;30245;51.966;6.292;2024-01-25T02:22:21;15.47;;;2.83;;
44536;SDS011;30245;51.966;6.292;2024-01-25T02:24:46;15.10;;;3.07;;
44536;SDS011;30245;51.966;6.292;2024-01-25T02:27:12;18.90;;;2.70;;
44536;SDS011;30245;51.966;6.292;2024-01-25T02:29:38;19.37;;;2.53;;
44536;SDS011;30245;51.966;6.292;2024-01-25T02:32:03;10.23;;;2.47;;
44536;SDS011;30245;51.966;6.292;2024-01-25T02:34:29;14.83;;;2.33;;
44536;SDS011;30245;51.966;6.292;2024-01-25T02:36:55;15.93;;;2.43;;
44536;SDS011;30245;51.966;6.292;2024-01-25T02:39:20;19.83;;;4.33;;
44536;SDS011;30245;51.966;6.292;2024-01-25T02:41:46;11.40;;;1.43;;
44536;SDS011;30245;51.966;6.292;2024-01-25T02:44:11;17.37;;;2.50;;
44536;SDS011;30245;51.966;6.292;2024-01-25T02:46:37;21.00;;;1.73;;
44536;SDS011;30245;51.966;6.292;2024-01-25T02:49:03;11.47;;;2.43;;
44536;SDS011;30245;51.966;6.292;2024-01-25T02:51:29;19.13;;;2.83;;
44536;SDS011;30245;51.966;6.292;2024-01-25T02:53:54;21.87;;;3.20;;
44536;SDS011;30245;51.966;6.292;2024-01-25T02:56:20;17.47;;;1.83;;
44536;SDS011;30245;51.966;6.292;2024-01-25T02:58:46;16.43;;;2.30;;
44536;SDS011;30245;51.966;6.292;2024-01-25T03:01:11;14.73;;;2.43;;
44536;SDS011;30245;51.966;6.292;2024-01-25T03:03:37;11.83;;;2.50;;
44536;SDS011;30245;51.966;6.292;2024-01-25T03:06:05;17.30;;;2.07;;
44536;SDS011;30245;51.966;6.292;2024-01-25T03:08:31;15.70;;;2.10;;
44536;SDS011;30245;51.966;6.292;2024-01-25T03:10:57;19.53;;;2.43;;
44536;SDS011;30245;51.966;6.292;2024-01-25T03:13:22;12.67;;;2.43;;
44536;SDS011;30245;51.966;6.292;2024-01-25T03:15:48;17.97;;;2.37;;
44536;SDS011;30245;51.966;6.292;2024-01-25T03:18:13;14.73;;;1.90;;
44536;SDS011;30245;51.966;6.292;2024-01-25T03:20:39;15.37;;;2.87;;
44536;SDS011;30245;51.966;6.292;2024-01-25T03:23:04;12.83;;;1.43;;
44536;SDS011;30245;51.966;6.292;2024-01-25T03:25:30;15.57;;;3.03;;
44536;SDS011;30245;51.966;6.292;2024-01-25T03:27:56;15.50;;;2.50;;
44536;SDS011;30245;51.966;6.292;2024-01-25T03:30:22;17.57;;;3.10;;
44536;SDS011;30245;51.966;6.292;2024-01-25T03:32:47;17.83;;;2.70;;
44536;SDS011;30245;51.966;6.292;2024-01-25T03:35:13;18.37;;;2.10;;
44536;SDS011;30245;51.966;6.292;2024-01-25T03:37:39;10.57;;;1.33;;
44536;SDS011;30245;51.966;6.292;2024-01-25T03:40:04;15.27;;;2.13;;
44536;SDS011;30245;51.966;6.292;2024-01-25T03:42:30;17.23;;;2.60;;
44536;SDS011;30245;51.966;6.292;2024-01-25T03:44:56;15.97;;;1.97;;
44536;SDS011;30245;51.966;6.292;2024-01-25T03:47:22;17.57;;;3.00;;
44536;SDS011;30245;51.966;6.292;2024-01-25T03:49:48;9.30;;;2.70;;
44536;SDS011;30245;51.966;6.292;2024-01-25T03:52:13;12.20;;;2.60;;
44536;SDS011;30245;51.966;6.292;2024-01-25T03:54:39;14.37;;;2.30;;
44536;SDS011;30245;51.966;6.292;2024-01-25T03:57:05;18.93;;;2.00;;
44536;SDS011;30245;51.966;6.292;2024-01-25T03:59:30;10.50;;;1.93;;
44536;SDS011;30245;51.966;6.292;2024-01-25T04:01:56;12.80;;;1.13;;
44536;SDS011;30245;51.966;6.292;2024-01-25T04:04:21;7.40;;;1.33;;
44536;SDS011;30245;51.966;6.292;2024-01-25T04:06:47;19.57;;;1.77;;
44536;SDS011;30245;51.966;6.292;2024-01-25T04:09:13;18.03;;;2.40;;
44536;SDS011;30245;51.966;6.292;2024-01-25T04:11:40;12.80;;;2.27;;
44536;SDS011;30245;51.966;6.292;2024-01-25T04:14:06;20.43;;;2.83;;
44536;SDS011;30245;51.966;6.292;2024-01-25T04:16:32;14.40;;;2.67;;
44536;SDS011;30245;51.966;6.292;2024-01-25T04:18:58;9.90;;;1.77;;
44536;SDS011;30245;51.966;6.292;2024-01-25T04:21:24;20.73;;;2.23;;
44536;SDS011;30245;51.966;6.292;2024-01-25T04:23:49;10.90;;;1.93;;
44536;SDS011;30245;51.966;6.292;2024-01-25T04:26:15;12.63;;;2.17;;
44536;SDS011;30245;51.966;6.292;2024-01-25T04:28:41;22.57;;;2.67;;
44536;SDS011;30245;51.966;6.292;2024-01-25T04:31:07;18.03;;;3.30;;
44536;SDS011;30245;51.966;6.292;2024-01-25T04:33:33;9.40;;;1.73;;
44536;SDS011;30245;51.966;6.292;2024-01-25T04:35:58;13.67;;;1.60;;
44536;SDS011;30245;51.966;6.292;2024-01-25T04:38:24;11.03;;;2.37;;
44536;SDS011;30245;51.966;6.292;2024-01-25T04:40:50;10.00;;;1.23;;
44536;SDS011;30245;51.966;6.292;2024-01-25T04:43:15;16.47;;;2.30;;
44536;SDS011;30245;51.966;6.292;2024-01-25T04:45:41;8.97;;;1.40;;
44536;SDS011;30245;51.966;6.292;2024-01-25T04:48:07;15.10;;;1.77;;
44536;SDS011;30245;51.966;6.292;2024-01-25T04:50:33;20.27;;;2.07;;
44536;SDS011;30245;51.966;6.292;2024-01-25T04:52:58;10.17;;;1.83;;
44536;SDS011;30245;51.966;6.292;2024-01-25T04:55:27;15.20;;;3.53;;
44536;SDS011;30245;51.966;6.292;2024-01-25T04:57:52;10.37;;;2.83;;
44536;SDS011;30245;51.966;6.292;2024-01-25T05:00:18;10.60;;;1.97;;
44536;SDS011;30245;51.966;6.292;2024-01-25T05:02:46;11.98;;;1.48;;
44536;SDS011;30245;51.966;6.292;2024-01-25T05:05:12;7.50;;;1.37;;
44536;SDS011;30245;51.966;6.292;2024-01-25T05:07:38;16.47;;;3.07;;
44536;SDS011;30245;51.966;6.292;2024-01-25T05:10:03;13.00;;;1.80;;
44536;SDS011;30245;51.966;6.292;2024-01-25T05:12:29;16.83;;;2.50;;
44536;SDS011;30245;51.966;6.292;2024-01-25T05:14:55;12.13;;;2.37;;
44536;SDS011;30245;51.966;6.292;2024-01-25T05:17:20;15.77;;;2.10;;
44536;SDS011;30245;51.966;6.292;2024-01-25T05:19:46;16.60;;;2.37;;
44536;SDS011;30245;51.966;6.292;2024-01-25T05:22:11;16.83;;;3.43;;
44536;SDS011;30245;51.966;6.292;2024-01-25T05:24:37;10.93;;;1.87;;
44536;SDS011;30245;51.966;6.292;2024-01-25T05:27:03;19.03;;;2.97;;
44536;SDS011;30245;51.966;6.292;2024-01-25T05:29:28;12.03;;;2.00;;
44536;SDS011;30245;51.966;6.292;2024-01-25T05:31:54;19.33;;;3.87;;
44536;SDS011;30245;51.966;6.292;2024-01-25T05:34:20;13.53;;;2.97;;
44536;SDS011;30245;51.966;6.292;2024-01-25T05:36:45;18.87;;;3.37;;
44536;SDS011;30245;51.966;6.292;2024-01-25T05:39:11;16.67;;;2.57;;
44536;SDS011;30245;51.966;6.292;2024-01-25T05:41:37;9.40;;;2.10;;
44536;SDS011;30245;51.966;6.292;2024-01-25T05:44:04;18.37;;;2.87;;
44536;SDS011;30245;51.966;6.292;2024-01-25T05:46:29;12.43;;;2.77;;
44536;SDS011;30245;51.966;6.292;2024-01-25T05:48:55;15.93;;;2.23;;
44536;SDS011;30245;51.966;6.292;2024-01-25T05:51:20;13.27;;;2.87;;
44536;SDS011;30245;51.966;6.292;2024-01-25T05:53:46;15.17;;;2.10;;
44536;SDS011;30245;51.966;6.292;2024-01-25T05:56:11;21.90;;;3.70;;
44536;SDS011;30245;51.966;6.292;2024-01-25T05:58:37;8.60;;;1.50;;
44536;SDS011;30245;51.966;6.292;2024-01-25T06:01:02;18.57;;;2.00;;
44536;SDS011;30245;51.966;6.292;2024-01-25T06:03:29;13.60;;;2.93;;
44536;SDS011;30245;51.966;6.292;2024-01-25T06:05:55;8.20;;;1.63;;
44536;SDS011;30245;51.966;6.292;2024-01-25T06:08:20;18.80;;;1.60;;
44536;SDS011;30245;51.966;6.292;2024-01-25T06:10:46;10.43;;;1.60;;
44536;SDS011;30245;51.966;6.292;2024-01-25T06:13:11;17.80;;;2.20;;
44536;SDS011;30245;51.966;6.292;2024-01-25T06:15:37;13.30;;;1.97;;
44536;SDS011;30245;51.966;6.292;2024-01-25T06:18:03;12.40;;;1.43;;
44536;SDS011;30245;51.966;6.292;2024-01-25T06:20:29;9.03;;;2.07;;
44536;SDS011;30245;51.966;6.292;2024-01-25T06:22:55;11.13;;;2.40;;
44536;SDS011;30245;51.966;6.292;2024-01-25T06:25:20;11.27;;;1.93;;
44536;SDS011;30245;51.966;6.292;2024-01-25T06:27:47;13.50;;;2.60;;
44536;SDS011;30245;51.966;6.292;2024-01-25T06:30:13;18.90;;;2.43;;
44536;SDS011;30245;51.966;6.292;2024-01-25T06:32:39;11.03;;;1.53;;
44536;SDS011;30245;51.966;6.292;2024-01-25T06:35:05;25.57;;;4.03;;
44536;SDS011;30245;51.966;6.292;2024-01-25T06:37:31;19.90;;;3.93;;
44536;SDS011;30245;51.966;6.292;2024-01-25T06:39:56;32.20;;;4.47;;
44536;SDS011;30245;51.966;6.292;2024-01-25T06:42:22;16.80;;;1.93;;
44536;SDS011;30245;51.966;6.292;2024-01-25T06:44:48;18.67;;;2.73;;
44536;SDS011;30245;51.966;6.292;2024-01-25T06:47:13;15.83;;;2.40;;
44536;SDS011;30245;51.966;6.292;2024-01-25T06:49:39;12.80;;;1.20;;
44536;SDS011;30245;51.966;6.292;2024-01-25T06:52:05;11.17;;;2.23;;
44536;SDS011;30245;51.966;6.292;2024-01-25T06:54:30;16.37;;;1.90;;
44536;SDS011;30245;51.966;6.292;2024-01-25T06:56:56;13.87;;;2.27;;
44536;SDS011;30245;51.966;6.292;2024-01-25T06:59:22;14.13;;;2.77;;
44536;SDS011;30245;51.966;6.292;2024-01-25T07:01:48;11.77;;;2.37;;
44536;SDS011;30245;51.966;6.292;2024-01-25T07:04:14;7.20;;;1.93;;
44536;SDS011;30245;51.966;6.292;2024-01-25T07:06:40;8.03;;;1.57;;
44536;SDS011;30245;51.966;6.292;2024-01-25T07:09:05;9.93;;;1.80;;
44536;SDS011;30245;51.966;6.292;2024-01-25T07:11:31;12.43;;;2.50;;
44536;SDS011;30245;51.966;6.292;2024-01-25T07:13:57;11.73;;;3.13;;
44536;SDS011;30245;51.966;6.292;2024-01-25T07:16:22;22.27;;;2.53;;
44536;SDS011;30245;51.966;6.292;2024-01-25T07:18:48;12.83;;;2.37;;
44536;SDS011;30245;51.966;6.292;2024-01-25T07:21:14;16.53;;;3.00;;
44536;SDS011;30245;51.966;6.292;2024-01-25T07:23:40;12.83;;;2.00;;
44536;SDS011;30245;51.966;6.292;2024-01-25T07:26:05;23.20;;;2.67;;
44536;SDS011;30245;51.966;6.292;2024-01-25T07:28:31;15.10;;;2.53;;
44536;SDS011;30245;51.966;6.292;2024-01-25T07:30:57;7.50;;;1.67;;
44536;SDS011;30245;51.966;6.292;2024-01-25T07:33:22;20.47;;;2.90;;
44536;SDS011;30245;51.966;6.292;2024-01-25T07:35:48;20.83;;;2.67;;
44536;SDS011;30245;51.966;6.292;2024-01-25T07:38:14;17.63;;;4.10;;
44536;SDS011;30245;51.966;6.292;2024-01-25T07:40:40;21.10;;;2.70;;
44536;SDS011;30245;51.966;6.292;2024-01-25T07:43:06;17.70;;;2.17;;
44536;SDS011;30245;51.966;6.292;2024-01-25T07:45:32;16.27;;;2.50;;
44536;SDS011;30245;51.966;6.292;2024-01-25T07:47:58;14.67;;;2.77;;
44536;SDS011;30245;51.966;6.292;2024-01-25T07:50:23;13.40;;;2.67;;
44536;SDS011;30245;51.966;6.292;2024-01-25T07:52:49;15.10;;;2.40;;
44536;SDS011;30245;51.966;6.292;2024-01-25T07:55:15;17.90;;;2.83;;
44536;SDS011;30245;51.966;6.292;2024-01-25T07:57:41;12.37;;;2.47;;
44536;SDS011;30245;51.966;6.292;2024-01-25T08:00:07;13.63;;;2.20;;
44536;SDS011;30245;51.966;6.292;2024-01-25T08:02:34;17.67;;;2.47;;
44536;SDS011;30245;51.966;6.292;2024-01-25T08:05:00;15.53;;;2.83;;
44536;SDS011;30245;51.966;6.292;2024-01-25T08:07:26;21.30;;;2.87;;
44536;SDS011;30245;51.966;6.292;2024-01-25T08:09:52;15.40;;;2.07;;
44536;SDS011;30245;51.966;6.292;2024-01-25T08:12:18;20.57;;;2.33;;
44536;SDS011;30245;51.966;6.292;2024-01-25T08:14:43;15.03;;;3.97;;
44536;SDS011;30245;51.966;6.292;2024-01-25T08:17:09;20.00;;;2.70;;
44536;SDS011;30245;51.966;6.292;2024-01-25T08:19:35;17.67;;;4.70;;
44536;SDS011;30245;51.966;6.292;2024-01-25T08:22:01;21.57;;;3.07;;
44536;SDS011;30245;51.966;6.292;2024-01-25T08:24:27;16.13;;;2.63;;
44536;SDS011;30245;51.966;6.292;2024-01-25T08:26:52;15.37;;;2.97;;
44536;SDS011;30245;51.966;6.292;2024-01-25T08:29:18;10.80;;;1.87;;
44536;SDS011;30245;51.966;6.292;2024-01-25T08:31:43;12.23;;;2.37;;
44536;SDS011;30245;51.966;6.292;2024-01-25T08:34:09;13.40;;;1.83;;
44536;SDS011;30245;51.966;6.292;2024-01-25T08:36:35;12.57;;;2.27;;
44536;SDS011;30245;51.966;6.292;2024-01-25T08:39:00;16.87;;;2.87;;
44536;SDS011;30245;51.966;6.292;2024-01-25T08:41:26;14.67;;;2.53;;
44536;SDS011;30245;51.966;6.292;2024-01-25T08:43:52;16.13;;;2.07;;
44536;SDS011;30245;51.966;6.292;2024-01-25T08:46:18;24.60;;;4.00;;
44536;SDS011;30245;51.966;6.292;2024-01-25T08:48:43;13.50;;;2.80;;
44536;SDS011;30245;51.966;6.292;2024-01-25T08:51:09;19.67;;;4.57;;
44536;SDS011;30245;51.966;6.292;2024-01-25T08:53:35;23.20;;;4.50;;
44536;SDS011;30245;51.966;6.292;2024-01-25T08:56:00;17.23;;;2.07;;
44536;SDS011;30245;51.966;6.292;2024-01-25T08:58:26;11.17;;;2.43;;
44536;SDS011;30245;51.966;6.292;2024-01-25T09:00:51;19.00;;;2.90;;
44536;SDS011;30245;51.966;6.292;2024-01-25T09:03:17;18.73;;;2.50;;
44536;SDS011;30245;51.966;6.292;2024-01-25T09:05:43;20.43;;;3.13;;
44536;SDS011;30245;51.966;6.292;2024-01-25T09:08:12;10.98;;;2.40;;
44536;SDS011;30245;51.966;6.292;2024-01-25T09:10:38;18.43;;;3.40;;
44536;SDS011;30245;51.966;6.292;2024-01-25T09:13:04;26.80;;;4.77;;
44536;SDS011;30245;51.966;6.292;2024-01-25T09:15:29;21.23;;;3.47;;
44536;SDS011;30245;51.966;6.292;2024-01-25T09:17:55;21.67;;;4.87;;
44536;SDS011;30245;51.966;6.292;2024-01-25T09:20:20;21.27;;;4.63;;
44536;SDS011;30245;51.966;6.292;2024-01-25T09:22:46;18.33;;;3.67;;
44536;SDS011;30245;51.966;6.292;2024-01-25T09:25:12;17.53;;;3.13;;
44536;SDS011;30245;51.966;6.292;2024-01-25T09:27:37;18.63;;;3.13;;
44536;SDS011;30245;51.966;6.292;2024-01-25T09:30:04;21.67;;;3.40;;
44536;SDS011;30245;51.966;6.292;2024-01-25T09:32:30;25.20;;;5.97;;
44536;SDS011;30245;51.966;6.292;2024-01-25T09:34:55;15.17;;;4.50;;
44536;SDS011;30245;51.966;6.292;2024-01-25T09:37:21;27.00;;;3.30;;
44536;SDS011;30245;51.966;6.292;2024-01-25T09:39:49;26.77;;;4.50;;
44536;SDS011;30245;51.966;6.292;2024-01-25T09:42:18;19.00;;;4.35;;
44536;SDS011;30245;51.966;6.292;2024-01-25T09:44:44;20.47;;;5.63;;
44536;SDS011;30245;51.966;6.292;2024-01-25T09:47:09;20.23;;;3.90;;
44536;SDS011;30245;51.966;6.292;2024-01-25T09:49:35;19.37;;;3.20;;
44536;SDS011;30245;51.966;6.292;2024-01-25T09:52:02;20.07;;;3.40;;
44536;SDS011;30245;51.966;6.292;2024-01-25T09:54:38;18.47;;;3.33;;
44536;SDS011;30245;51.966;6.292;2024-01-25T09:57:06;16.97;;;2.97;;
44536;SDS011;30245;51.966;6.292;2024-01-25T09:59:40;12.10;;;3.20;;
44536;SDS011;30245;51.966;6.292;2024-01-25T10:02:06;16.43;;;3.10;;
44536;SDS011;30245;51.966;6.292;2024-01-25T10:04:34;14.33;;;2.97;;
44536;SDS011;30245;51.966;6.292;2024-01-25T10:07:00;16.93;;;3.13;;
44536;SDS011;30245;51.966;6.292;2024-01-25T10:09:25;19.23;;;4.63;;
44536;SDS011;30245;51.966;6.292;2024-01-25T10:11:52;19.87;;;4.50;;
44536;SDS011;30245;51.966;6.292;2024-01-25T10:14:17;19.90;;;4.87;;
44536;SDS011;30245;51.966;6.292;2024-01-25T10:16:44;13.83;;;3.13;;
44536;SDS011;30245;51.966;6.292;2024-01-25T10:19:10;27.47;;;4.03;;
44536;SDS011;30245;51.966;6.292;2024-01-25T10:21:37;16.57;;;3.50;;
44536;SDS011;30245;51.966;6.292;2024-01-25T10:24:03;24.17;;;4.50;;
44536;SDS011;30245;51.966;6.292;2024-01-25T10:26:31;26.00;;;5.80;;
44536;SDS011;30245;51.966;6.292;2024-01-25T10:28:56;25.10;;;6.03;;
44536;SDS011;30245;51.966;6.292;2024-01-25T10:31:23;19.43;;;3.57;;
44536;SDS011;30245;51.966;6.292;2024-01-25T10:33:54;18.00;;;5.40;;
44536;SDS011;30245;51.966;6.292;2024-01-25T10:36:21;18.77;;;4.20;;
44536;SDS011;30245;51.966;6.292;2024-01-25T10:38:48;16.37;;;4.40;;
44536;SDS011;30245;51.966;6.292;2024-01-25T10:41:15;19.17;;;3.90;;
44536;SDS011;30245;51.966;6.292;2024-01-25T10:43:40;13.13;;;3.63;;
44536;SDS011;30245;51.966;6.292;2024-01-25T10:46:06;22.77;;;4.13;;
44536;SDS011;30245;51.966;6.292;2024-01-25T10:48:33;27.07;;;5.43;;
44536;SDS011;30245;51.966;6.292;2024-01-25T10:50:59;20.50;;;3.87;;
44536;SDS011;30245;51.966;6.292;2024-01-25T10:53:29;22.63;;;4.65;;
44536;SDS011;30245;51.966;6.292;2024-01-25T10:55:57;14.00;;;3.23;;
44536;SDS011;30245;51.966;6.292;2024-01-25T10:58:23;14.90;;;3.13;;
44536;SDS011;30245;51.966;6.292;2024-01-25T11:00:50;19.90;;;4.53;;
44536;SDS011;30245;51.966;6.292;2024-01-25T11:03:29;12.90;;;3.03;;
44536;SDS011;30245;51.966;6.292;2024-01-25T11:06:07;19.40;;;3.83;;
44536;SDS011;30245;51.966;6.292;2024-01-25T11:08:37;17.20;;;2.70;;
44536;SDS011;30245;51.966;6.292;2024-01-25T11:11:07;19.77;;;3.10;;
44536;SDS011;30245;51.966;6.292;2024-01-25T11:13:34;15.93;;;3.53;;
44536;SDS011;30245;51.966;6.292;2024-01-25T11:16:10;19.73;;;4.03;;
44536;SDS011;30245;51.966;6.292;2024-01-25T11:21:21;13.93;;;3.43;;
44536;SDS011;30245;51.966;6.292;2024-01-25T11:23:58;28.17;;;5.13;;
44536;SDS011;30245;51.966;6.292;2024-01-25T11:26:27;16.63;;;3.97;;
44536;SDS011;30245;51.966;6.292;2024-01-25T11:28:54;12.95;;;4.30;;
44536;SDS011;30245;51.966;6.292;2024-01-25T11:31:20;18.70;;;4.05;;
44536;SDS011;30245;51.966;6.292;2024-01-25T11:33:47;17.27;;;4.85;;
44536;SDS011;30245;51.966;6.292;2024-01-25T11:36:13;20.88;;;5.10;;
44536;SDS011;30245;51.966;6.292;2024-01-25T11:38:39;21.08;;;3.47;;
44536;SDS011;30245;51.966;6.292;2024-01-25T11:41:04;18.90;;;3.20;;
44536;SDS011;30245;51.966;6.292;2024-01-25T11:43:30;23.25;;;5.15;;
44536;SDS011;30245;51.966;6.292;2024-01-25T11:45:55;20.15;;;4.28;;
44536;SDS011;30245;51.966;6.292;2024-01-25T11:48:21;19.17;;;2.88;;
44536;SDS011;30245;51.966;6.292;2024-01-25T11:50:46;20.60;;;4.28;;
44536;SDS011;30245;51.966;6.292;2024-01-25T11:53:12;10.48;;;3.50;;
44536;SDS011;30245;51.966;6.292;2024-01-25T11:55:37;20.27;;;4.55;;
44536;SDS011;30245;51.966;6.292;2024-01-25T11:58:03;17.73;;;4.38;;
44536;SDS011;30245;51.966;6.292;2024-01-25T12:00:29;16.13;;;3.20;;
44536;SDS011;30245;51.966;6.292;2024-01-25T12:02:55;17.73;;;4.37;;
44536;SDS011;30245;51.966;6.292;2024-01-25T12:05:20;17.48;;;4.25;;
44536;SDS011;30245;51.966;6.292;2024-01-25T12:07:46;23.05;;;4.60;;
44536;SDS011;30245;51.966;6.292;2024-01-25T12:10:15;26.13;;;4.67;;
44536;SDS011;30245;51.966;6.292;2024-01-25T12:12:42;17.77;;;4.05;;
44536;SDS011;30245;51.966;6.292;2024-01-25T12:15:08;16.85;;;2.55;;
44536;SDS011;30245;51.966;6.292;2024-01-25T12:17:34;15.13;;;3.15;;
44536;SDS011;30245;51.966;6.292;2024-01-25T12:20:06;9.98;;;2.45;;
44536;SDS011;30245;51.966;6.292;2024-01-25T12:22:36;13.73;;;4.85;;
44536;SDS011;30245;51.966;6.292;2024-01-25T12:25:02;17.13;;;5.03;;
44536;SDS011;30245;51.966;6.292;2024-01-25T12:27:32;14.85;;;3.85;;
44536;SDS011;30245;51.966;6.292;2024-01-25T12:29:58;22.83;;;3.38;;
44536;SDS011;30245;51.966;6.292;2024-01-25T12:32:24;15.32;;;3.30;;
44536;SDS011;30245;51.966;6.292;2024-01-25T12:34:53;15.52;;;3.97;;
44536;SDS011;30245;51.966;6.292;2024-01-25T12:37:22;12.60;;;2.50;;
44536;SDS011;30245;51.966;6.292;2024-01-25T12:39:48;17.90;;;3.63;;
44536;SDS011;30245;51.966;6.292;2024-01-25T12:42:15;19.70;;;2.70;;
44536;SDS011;30245;51.966;6.292;2024-01-25T12:44:40;17.88;;;2.40;;
44536;SDS011;30245;51.966;6.292;2024-01-25T12:47:06;19.52;;;3.35;;
44536;SDS011;30245;51.966;6.292;2024-01-25T12:49:32;12.27;;;1.92;;
44536;SDS011;30245;51.966;6.292;2024-01-25T12:51:58;17.30;;;3.88;;
44536;SDS011;30245;51.966;6.292;2024-01-25T12:54:24;18.02;;;3.13;;
44536;SDS011;30245;51.966;6.292;2024-01-25T12:56:51;17.55;;;3.28;;
44536;SDS011;30245;51.966;6.292;2024-01-25T12:59:16;18.35;;;4.35;;
44536;SDS011;30245;51.966;6.292;2024-01-25T13:01:42;19.48;;;3.25;;
44536;SDS011;30245;51.966;6.292;2024-01-25T13:04:08;8.93;;;3.35;;
44536;SDS011;30245;51.966;6.292;2024-01-25T13:06:33;11.88;;;2.67;;
44536;SDS011;30245;51.966;6.292;2024-01-25T13:08:59;18.42;;;3.97;;
44536;SDS011;30245;51.966;6.292;2024-01-25T13:11:24;12.95;;;3.15;;
44536;SDS011;30245;51.966;6.292;2024-01-25T13:13:50;12.45;;;2.58;;
44536;SDS011;30245;51.966;6.292;2024-01-25T13:16:16;18.33;;;2.97;;
44536;SDS011;30245;51.966;6.292;2024-01-25T13:18:42;18.52;;;3.03;;
44536;SDS011;30245;51.966;6.292;2024-01-25T13:21:07;17.23;;;3.50;;
44536;SDS011;30245;51.966;6.292;2024-01-25T13:23:33;17.55;;;3.88;;
44536;SDS011;30245;51.966;6.292;2024-01-25T13:25:59;13.25;;;3.78;;
44536;SDS011;30245;51.966;6.292;2024-01-25T13:28:24;14.25;;;3.17;;
44536;SDS011;30245;51.966;6.292;2024-01-25T13:30:50;25.73;;;6.32;;
44536;SDS011;30245;51.966;6.292;2024-01-25T13:33:18;18.95;;;4.50;;
44536;SDS011;30245;51.966;6.292;2024-01-25T13:35:44;19.13;;;4.97;;
44536;SDS011;30245;51.966;6.292;2024-01-25T13:38:09;19.42;;;4.45;;
44536;SDS011;30245;51.966;6.292;2024-01-25T13:40:39;26.25;;;5.70;;
44536;SDS011;30245;51.966;6.292;2024-01-25T13:43:05;19.65;;;5.60;;
44536;SDS011;30245;51.966;6.292;2024-01-25T13:45:30;16.33;;;4.50;;
44536;SDS011;30245;51.966;6.292;2024-01-25T13:47:56;14.88;;;5.25;;
44536;SDS011;30245;51.966;6.292;2024-01-25T13:50:22;18.40;;;6.90;;
44536;SDS011;30245;51.966;6.292;2024-01-25T13:52:47;19.67;;;4.93;;
44536;SDS011;30245;51.966;6.292;2024-01-25T13:55:13;25.83;;;6.45;;
44536;SDS011;30245;51.966;6.292;2024-01-25T13:57:38;22.47;;;6.83;;
44536;SDS011;30245;51.966;6.292;2024-01-25T14:00:04;21.45;;;7.00;;
44536;SDS011;30245;51.966;6.292;2024-01-25T14:02:31;28.00;;;8.00;;
44536;SDS011;30245;51.966;6.292;2024-01-25T14:04:57;25.90;;;8.73;;
44536;SDS011;30245;51.966;6.292;2024-01-25T14:07:22;26.10;;;8.07;;
44536;SDS011;30245;51.966;6.292;2024-01-25T14:09:48;24.60;;;7.93;;
44536;SDS011;30245;51.966;6.292;2024-01-25T14:12:13;28.37;;;9.33;;
44536;SDS011;30245;51.966;6.292;2024-01-25T14:14:39;26.00;;;9.50;;
44536;SDS011;30245;51.966;6.292;2024-01-25T14:17:04;28.17;;;11.23;;
44536;SDS011;30245;51.966;6.292;2024-01-25T14:19:30;29.67;;;10.33;;
44536;SDS011;30245;51.966;6.292;2024-01-25T14:21:55;29.73;;;11.83;;
44536;SDS011;30245;51.966;6.292;2024-01-25T14:24:21;24.50;;;10.80;;
44536;SDS011;30245;51.966;6.292;2024-01-25T14:26:47;27.23;;;11.93;;
44536;SDS011;30245;51.966;6.292;2024-01-25T14:29:12;33.53;;;13.30;;
44536;SDS011;30245;51.966;6.292;2024-01-25T14:31:39;30.00;;;13.07;;
44536;SDS011;30245;51.966;6.292;2024-01-25T14:34:04;19.47;;;8.97;;